Portada
METAR-TAF:

METAR-TAF

Aeroports :

Wittering, Anglaterra

latitud: 52-37N, longitud: 000-28W, altitud: 84 m

Observació

L'informe es va fer fa 42 minuts, a les 14:50 UTC
Vent 9 kt del Nord-Oest
Temperatura 9°C
Humitat 53%
Pressió 1020 hPa
Visibilitat 10 km o més

METAR: EGXT 011450Z AUTO 31009KT 9999 OVC050/// 09/00 Q1020

Hora: 16:32 (15:32 UTC)

Pronòstic

L'informe es va fer fa 25 hores i 57 minuts, a les 13:35 UTC
Pronòstic vàlid del 31 a les 15 UTC al 31 a les 18 UTC
Vent 10 kt del Nord-Est
Visibilitat 10 km o més
Escasses núvols a una alçada de 2500 ft
Cel ennuvolat a una alçada de 3500 ft

TAF: EGXT 311335Z 3115/3118 04010KT 9999 FEW025 BKN035

Observacions i pronòstics meteorològics de més de 4000 aeroports (METAR i TAF).

Les estacions disponibles són els punts grocs i vermells al mapa.

Posi el ratolí al punt desitjat per veure el nom de l'estació.

Feu clic per veure les observacions i els pronòstics meteorològics.

Per canviar el mapa: feu clic els botons verds amb una creu de color negre per apropar; al botó verd amb un guió per allunyar la imatge; o en les fletxes verdes per a mapes adjacents.


METAR-TAF: